sensor_id;sensor_type;location;lat;lon;timestamp;temperature;humidity
39519;DHT22;25200;53.394;10.414;2023-07-20T00:00:29;16.20;73.20
39519;DHT22;25200;53.394;10.414;2023-07-20T00:03:10;16.20;72.60
39519;DHT22;25200;53.394;10.414;2023-07-20T00:05:38;16.20;73.10
39519;DHT22;25200;53.394;10.414;2023-07-20T00:08:04;16.10;73.30
39519;DHT22;25200;53.394;10.414;2023-07-20T00:10:30;16.10;72.90
39519;DHT22;25200;53.394;10.414;2023-07-20T00:12:55;16.10;73.20
39519;DHT22;25200;53.394;10.414;2023-07-20T00:15:21;16.10;73.20
39519;DHT22;25200;53.394;10.414;2023-07-20T00:17:47;16.10;73.90
39519;DHT22;25200;53.394;10.414;2023-07-20T00:20:12;16.10;74.10
39519;DHT22;25200;53.394;10.414;2023-07-20T00:22:38;16.10;74.30
39519;DHT22;25200;53.394;10.414;2023-07-20T00:25:04;16.10;74.10
39519;DHT22;25200;53.394;10.414;2023-07-20T00:27:30;16.10;73.60
39519;DHT22;25200;53.394;10.414;2023-07-20T00:29:56;16.10;74.50
39519;DHT22;25200;53.394;10.414;2023-07-20T00:32:21;16.10;74.10
39519;DHT22;25200;53.394;10.414;2023-07-20T00:34:47;16.10;74.40
39519;DHT22;25200;53.394;10.414;2023-07-20T00:37:13;16.10;74.70
39519;DHT22;25200;53.394;10.414;2023-07-20T00:39:38;16.10;75.00
39519;DHT22;25200;53.394;10.414;2023-07-20T00:42:04;16.10;75.00
39519;DHT22;25200;53.394;10.414;2023-07-20T00:44:30;16.10;75.30
39519;DHT22;25200;53.394;10.414;2023-07-20T00:46:56;16.10;75.10
39519;DHT22;25200;53.394;10.414;2023-07-20T00:49:22;16.10;74.70
39519;DHT22;25200;53.394;10.414;2023-07-20T00:51:49;16.10;75.00
39519;DHT22;25200;53.394;10.414;2023-07-20T00:54:16;16.20;75.00
39519;DHT22;25200;53.394;10.414;2023-07-20T00:56:42;16.10;75.30
39519;DHT22;25200;53.394;10.414;2023-07-20T00:59:09;16.10;75.20
39519;DHT22;25200;53.394;10.414;2023-07-20T01:01:35;16.10;75.30
39519;DHT22;25200;53.394;10.414;2023-07-20T01:04:00;16.10;74.70
39519;DHT22;25200;53.394;10.414;2023-07-20T01:09:12;16.10;75.30
39519;DHT22;25200;53.394;10.414;2023-07-20T01:14:07;16.20;75.50
39519;DHT22;25200;53.394;10.414;2023-07-20T01:16:34;16.10;75.40
39519;DHT22;25200;53.394;10.414;2023-07-20T01:19:00;16.10;75.40
39519;DHT22;25200;53.394;10.414;2023-07-20T01:21:44;16.20;74.90
39519;DHT22;25200;53.394;10.414;2023-07-20T01:27:22;16.10;74.00
39519;DHT22;25200;53.394;10.414;2023-07-20T01:30:01;16.10;74.60
39519;DHT22;25200;53.394;10.414;2023-07-20T01:32:31;16.10;75.30
39519;DHT22;25200;53.394;10.414;2023-07-20T01:34:58;16.10;75.10
39519;DHT22;25200;53.394;10.414;2023-07-20T01:37:26;16.20;74.70
39519;DHT22;25200;53.394;10.414;2023-07-20T01:39:55;16.20;73.60
39519;DHT22;25200;53.394;10.414;2023-07-20T01:42:24;16.20;74.20
39519;DHT22;25200;53.394;10.414;2023-07-20T01:44:51;16.20;73.80
39519;DHT22;25200;53.394;10.414;2023-07-20T01:47:18;16.20;73.70
39519;DHT22;25200;53.394;10.414;2023-07-20T01:49:43;16.20;74.20
39519;DHT22;25200;53.394;10.414;2023-07-20T01:52:09;16.20;73.70
39519;DHT22;25200;53.394;10.414;2023-07-20T01:54:34;16.20;74.00
39519;DHT22;25200;53.394;10.414;2023-07-20T01:57:00;16.20;73.50
39519;DHT22;25200;53.394;10.414;2023-07-20T01:59:26;16.20;74.90
39519;DHT22;25200;53.394;10.414;2023-07-20T02:01:52;16.20;73.90
39519;DHT22;25200;53.394;10.414;2023-07-20T02:04:18;16.20;74.80
39519;DHT22;25200;53.394;10.414;2023-07-20T02:06:43;16.20;74.90
39519;DHT22;25200;53.394;10.414;2023-07-20T02:09:09;16.20;74.20
39519;DHT22;25200;53.394;10.414;2023-07-20T02:11:35;16.20;73.90
39519;DHT22;25200;53.394;10.414;2023-07-20T02:14:00;16.20;73.50
39519;DHT22;25200;53.394;10.414;2023-07-20T02:16:26;16.20;73.50
39519;DHT22;25200;53.394;10.414;2023-07-20T02:18:52;16.10;75.00
39519;DHT22;25200;53.394;10.414;2023-07-20T02:21:18;16.10;74.90
39519;DHT22;25200;53.394;10.414;2023-07-20T02:23:44;16.10;73.30
39519;DHT22;25200;53.394;10.414;2023-07-20T02:26:09;16.10;73.90
39519;DHT22;25200;53.394;10.414;2023-07-20T02:28:35;16.10;75.30
39519;DHT22;25200;53.394;10.414;2023-07-20T02:31:00;16.10;74.20
39519;DHT22;25200;53.394;10.414;2023-07-20T02:33:26;16.10;75.20
39519;DHT22;25200;53.394;10.414;2023-07-20T02:35:52;16.10;73.90
39519;DHT22;25200;53.394;10.414;2023-07-20T02:38:18;16.10;74.30
39519;DHT22;25200;53.394;10.414;2023-07-20T02:40:43;16.10;75.00
39519;DHT22;25200;53.394;10.414;2023-07-20T02:43:09;16.00;74.40
39519;DHT22;25200;53.394;10.414;2023-07-20T02:45:35;16.00;75.00
39519;DHT22;25200;53.394;10.414;2023-07-20T02:48:05;16.00;74.20
39519;DHT22;25200;53.394;10.414;2023-07-20T02:50:33;16.00;75.20
39519;DHT22;25200;53.394;10.414;2023-07-20T02:53:00;16.00;74.00
39519;DHT22;25200;53.394;10.414;2023-07-20T02:55:25;16.00;74.90
39519;DHT22;25200;53.394;10.414;2023-07-20T02:57:51;16.00;73.80
39519;DHT22;25200;53.394;10.414;2023-07-20T03:00:17;16.00;75.00
39519;DHT22;25200;53.394;10.414;2023-07-20T03:02:45;16.00;75.10
39519;DHT22;25200;53.394;10.414;2023-07-20T03:05:13;16.00;73.60
39519;DHT22;25200;53.394;10.414;2023-07-20T03:07:39;16.00;74.40
39519;DHT22;25200;53.394;10.414;2023-07-20T03:10:05;16.00;73.60
39519;DHT22;25200;53.394;10.414;2023-07-20T03:12:34;16.10;73.80
39519;DHT22;25200;53.394;10.414;2023-07-20T03:15:04;16.10;74.70
39519;DHT22;25200;53.394;10.414;2023-07-20T03:17:29;16.10;73.20
39519;DHT22;25200;53.394;10.414;2023-07-20T03:19:55;16.10;73.20
39519;DHT22;25200;53.394;10.414;2023-07-20T03:22:21;16.10;73.10
39519;DHT22;25200;53.394;10.414;2023-07-20T03:24:47;16.10;72.90
39519;DHT22;25200;53.394;10.414;2023-07-20T03:27:13;16.10;73.30
39519;DHT22;25200;53.394;10.414;2023-07-20T03:29:39;16.10;74.20
39519;DHT22;25200;53.394;10.414;2023-07-20T03:32:05;16.10;73.20
39519;DHT22;25200;53.394;10.414;2023-07-20T03:34:31;16.10;73.40
39519;DHT22;25200;53.394;10.414;2023-07-20T03:36:57;16.10;73.10
39519;DHT22;25200;53.394;10.414;2023-07-20T03:39:22;16.10;73.50
39519;DHT22;25200;53.394;10.414;2023-07-20T03:41:48;16.10;73.80
39519;DHT22;25200;53.394;10.414;2023-07-20T03:44:14;16.10;73.20
39519;DHT22;25200;53.394;10.414;2023-07-20T03:46:39;16.10;74.70
39519;DHT22;25200;53.394;10.414;2023-07-20T03:49:05;16.10;74.50
39519;DHT22;25200;53.394;10.414;2023-07-20T03:51:32;16.10;73.60
39519;DHT22;25200;53.394;10.414;2023-07-20T03:53:57;16.10;73.90
39519;DHT22;25200;53.394;10.414;2023-07-20T03:56:23;16.10;73.30
39519;DHT22;25200;53.394;10.414;2023-07-20T03:58:50;16.10;74.10
39519;DHT22;25200;53.394;10.414;2023-07-20T04:01:15;16.10;72.80
39519;DHT22;25200;53.394;10.414;2023-07-20T04:03:42;16.10;72.80
39519;DHT22;25200;53.394;10.414;2023-07-20T04:06:08;16.20;72.80
39519;DHT22;25200;53.394;10.414;2023-07-20T04:08:35;16.20;72.80
39519;DHT22;25200;53.394;10.414;2023-07-20T04:11:02;16.20;72.90
39519;DHT22;25200;53.394;10.414;2023-07-20T04:13:27;16.20;73.20
39519;DHT22;25200;53.394;10.414;2023-07-20T04:15:54;16.20;72.90
39519;DHT22;25200;53.394;10.414;2023-07-20T04:18:20;16.20;72.80
39519;DHT22;25200;53.394;10.414;2023-07-20T04:20:46;16.20;72.90
39519;DHT22;25200;53.394;10.414;2023-07-20T04:23:12;16.20;72.80
39519;DHT22;25200;53.394;10.414;2023-07-20T04:25:39;16.20;73.10
39519;DHT22;25200;53.394;10.414;2023-07-20T04:28:07;16.20;72.80
39519;DHT22;25200;53.394;10.414;2023-07-20T04:30:36;16.20;72.60
39519;DHT22;25200;53.394;10.414;2023-07-20T04:33:03;16.20;72.80
39519;DHT22;25200;53.394;10.414;2023-07-20T04:38:13;16.20;73.30
39519;DHT22;25200;53.394;10.414;2023-07-20T04:40:42;16.30;72.80
39519;DHT22;25200;53.394;10.414;2023-07-20T04:43:07;16.30;72.50
39519;DHT22;25200;53.394;10.414;2023-07-20T04:45:33;16.30;72.50
39519;DHT22;25200;53.394;10.414;2023-07-20T04:47:59;16.30;72.30
39519;DHT22;25200;53.394;10.414;2023-07-20T04:50:24;16.30;72.50
39519;DHT22;25200;53.394;10.414;2023-07-20T04:52:51;16.40;72.40
39519;DHT22;25200;53.394;10.414;2023-07-20T04:55:17;16.40;72.60
39519;DHT22;25200;53.394;10.414;2023-07-20T04:57:43;16.40;72.40
39519;DHT22;25200;53.394;10.414;2023-07-20T05:00:09;16.40;72.30
39519;DHT22;25200;53.394;10.414;2023-07-20T05:02:36;16.40;72.50
39519;DHT22;25200;53.394;10.414;2023-07-20T05:05:03;16.50;72.10
39519;DHT22;25200;53.394;10.414;2023-07-20T05:07:31;16.50;72.10
39519;DHT22;25200;53.394;10.414;2023-07-20T05:09:57;16.60;72.20
39519;DHT22;25200;53.394;10.414;2023-07-20T05:12:23;16.60;72.10
39519;DHT22;25200;53.394;10.414;2023-07-20T05:14:48;16.60;71.90
39519;DHT22;25200;53.394;10.414;2023-07-20T05:17:14;16.60;71.90
39519;DHT22;25200;53.394;10.414;2023-07-20T05:19:39;16.70;71.90
39519;DHT22;25200;53.394;10.414;2023-07-20T05:22:05;16.70;71.90
39519;DHT22;25200;53.394;10.414;2023-07-20T05:24:31;16.70;72.10
39519;DHT22;25200;53.394;10.414;2023-07-20T05:26:58;16.70;71.80
39519;DHT22;25200;53.394;10.414;2023-07-20T05:29:24;16.70;72.10
39519;DHT22;25200;53.394;10.414;2023-07-20T05:31:50;16.80;71.90
39519;DHT22;25200;53.394;10.414;2023-07-20T05:34:16;16.80;71.90
39519;DHT22;25200;53.394;10.414;2023-07-20T05:37:09;16.70;71.90
39519;DHT22;25200;53.394;10.414;2023-07-20T05:39:35;16.80;71.60
39519;DHT22;25200;53.394;10.414;2023-07-20T05:42:01;16.80;71.80
39519;DHT22;25200;53.394;10.414;2023-07-20T05:44:26;16.80;71.90
39519;DHT22;25200;53.394;10.414;2023-07-20T05:46:52;16.80;72.00
39519;DHT22;25200;53.394;10.414;2023-07-20T05:49:17;16.80;71.90
39519;DHT22;25200;53.394;10.414;2023-07-20T05:51:43;16.80;71.80
39519;DHT22;25200;53.394;10.414;2023-07-20T05:54:09;16.90;72.10
39519;DHT22;25200;53.394;10.414;2023-07-20T05:56:34;16.90;71.60
39519;DHT22;25200;53.394;10.414;2023-07-20T05:59:00;16.90;71.60
39519;DHT22;25200;53.394;10.414;2023-07-20T06:01:25;16.90;71.70
39519;DHT22;25200;53.394;10.414;2023-07-20T06:03:53;17.00;71.80
39519;DHT22;25200;53.394;10.414;2023-07-20T06:06:19;17.00;71.90
39519;DHT22;25200;53.394;10.414;2023-07-20T06:08:45;17.00;71.60
39519;DHT22;25200;53.394;10.414;2023-07-20T06:11:11;16.90;71.50
39519;DHT22;25200;53.394;10.414;2023-07-20T06:13:36;16.90;71.60
39519;DHT22;25200;53.394;10.414;2023-07-20T06:16:03;16.90;72.00
39519;DHT22;25200;53.394;10.414;2023-07-20T06:18:29;16.90;71.90
39519;DHT22;25200;53.394;10.414;2023-07-20T06:20:55;16.90;72.10
39519;DHT22;25200;53.394;10.414;2023-07-20T06:23:21;16.80;71.90
39519;DHT22;25200;53.394;10.414;2023-07-20T06:25:47;16.90;72.10
39519;DHT22;25200;53.394;10.414;2023-07-20T06:28:13;16.90;71.90
39519;DHT22;25200;53.394;10.414;2023-07-20T06:30:39;16.80;71.90
39519;DHT22;25200;53.394;10.414;2023-07-20T06:33:05;16.90;71.80
39519;DHT22;25200;53.394;10.414;2023-07-20T06:35:31;16.80;71.90
39519;DHT22;25200;53.394;10.414;2023-07-20T06:37:56;16.80;72.20
39519;DHT22;25200;53.394;10.414;2023-07-20T06:40:23;16.80;72.10
39519;DHT22;25200;53.394;10.414;2023-07-20T06:42:48;16.80;72.20
39519;DHT22;25200;53.394;10.414;2023-07-20T06:45:14;16.80;71.90
39519;DHT22;25200;53.394;10.414;2023-07-20T06:47:40;16.80;72.30
39519;DHT22;25200;53.394;10.414;2023-07-20T06:50:09;16.90;72.30
39519;DHT22;25200;53.394;10.414;2023-07-20T06:52:36;16.90;71.90
39519;DHT22;25200;53.394;10.414;2023-07-20T06:55:01;17.00;71.90
39519;DHT22;25200;53.394;10.414;2023-07-20T06:57:27;17.00;71.90
39519;DHT22;25200;53.394;10.414;2023-07-20T06:59:53;17.00;71.90
39519;DHT22;25200;53.394;10.414;2023-07-20T07:02:19;17.00;71.60
39519;DHT22;25200;53.394;10.414;2023-07-20T07:04:44;17.10;71.70
39519;DHT22;25200;53.394;10.414;2023-07-20T07:07:15;17.10;71.70
39519;DHT22;25200;53.394;10.414;2023-07-20T07:09:41;17.20;71.70
39519;DHT22;25200;53.394;10.414;2023-07-20T07:12:07;17.30;71.80
39519;DHT22;25200;53.394;10.414;2023-07-20T07:14:33;17.30;71.30
39519;DHT22;25200;53.394;10.414;2023-07-20T07:17:00;17.40;71.50
39519;DHT22;25200;53.394;10.414;2023-07-20T07:19:26;17.50;71.50
39519;DHT22;25200;53.394;10.414;2023-07-20T07:21:51;17.50;71.40
39519;DHT22;25200;53.394;10.414;2023-07-20T07:24:17;17.50;71.20
39519;DHT22;25200;53.394;10.414;2023-07-20T07:26:43;17.60;71.30
39519;DHT22;25200;53.394;10.414;2023-07-20T07:29:09;17.60;71.30
39519;DHT22;25200;53.394;10.414;2023-07-20T07:31:35;17.60;71.10
39519;DHT22;25200;53.394;10.414;2023-07-20T07:34:04;17.60;71.10
39519;DHT22;25200;53.394;10.414;2023-07-20T07:36:31;17.70;71.10
39519;DHT22;25200;53.394;10.414;2023-07-20T07:38:56;17.70;71.00
39519;DHT22;25200;53.394;10.414;2023-07-20T07:41:22;17.80;71.00
39519;DHT22;25200;53.394;10.414;2023-07-20T07:43:48;17.90;71.00
39519;DHT22;25200;53.394;10.414;2023-07-20T07:46:14;17.90;71.00
39519;DHT22;25200;53.394;10.414;2023-07-20T07:48:42;17.90;70.80
39519;DHT22;25200;53.394;10.414;2023-07-20T07:51:07;17.90;70.70
39519;DHT22;25200;53.394;10.414;2023-07-20T07:53:33;17.90;70.80
39519;DHT22;25200;53.394;10.414;2023-07-20T07:56:00;17.90;70.80
39519;DHT22;25200;53.394;10.414;2023-07-20T07:58:28;17.90;70.80
39519;DHT22;25200;53.394;10.414;2023-07-20T08:00:54;17.80;70.60
39519;DHT22;25200;53.394;10.414;2023-07-20T08:03:20;17.80;70.60
39519;DHT22;25200;53.394;10.414;2023-07-20T08:05:45;17.70;70.70
39519;DHT22;25200;53.394;10.414;2023-07-20T08:08:11;17.70;70.70
39519;DHT22;25200;53.394;10.414;2023-07-20T08:10:37;17.70;70.80
39519;DHT22;25200;53.394;10.414;2023-07-20T08:13:02;17.80;70.90
39519;DHT22;25200;53.394;10.414;2023-07-20T08:15:28;17.80;70.90
39519;DHT22;25200;53.394;10.414;2023-07-20T08:17:54;17.80;70.90
39519;DHT22;25200;53.394;10.414;2023-07-20T08:20:20;17.90;70.70
39519;DHT22;25200;53.394;10.414;2023-07-20T08:22:54;17.90;70.60
39519;DHT22;25200;53.394;10.414;2023-07-20T08:25:20;17.90;70.50
39519;DHT22;25200;53.394;10.414;2023-07-20T08:27:46;17.90;70.60
39519;DHT22;25200;53.394;10.414;2023-07-20T08:30:13;17.90;70.90
39519;DHT22;25200;53.394;10.414;2023-07-20T08:32:38;18.00;70.50
39519;DHT22;25200;53.394;10.414;2023-07-20T08:35:05;18.10;70.70
39519;DHT22;25200;53.394;10.414;2023-07-20T08:37:31;18.10;70.30
39519;DHT22;25200;53.394;10.414;2023-07-20T08:39:57;18.20;70.30
39519;DHT22;25200;53.394;10.414;2023-07-20T08:42:22;18.30;70.20
39519;DHT22;25200;53.394;10.414;2023-07-20T08:44:48;18.40;70.00
39519;DHT22;25200;53.394;10.414;2023-07-20T08:47:16;18.50;70.00
39519;DHT22;25200;53.394;10.414;2023-07-20T08:49:41;18.60;69.50
39519;DHT22;25200;53.394;10.414;2023-07-20T08:52:08;18.60;69.30
39519;DHT22;25200;53.394;10.414;2023-07-20T08:54:34;18.70;69.40
39519;DHT22;25200;53.394;10.414;2023-07-20T08:57:05;18.70;69.20
39519;DHT22;25200;53.394;10.414;2023-07-20T08:59:31;18.70;69.30
39519;DHT22;25200;53.394;10.414;2023-07-20T09:02:01;18.70;69.20
39519;DHT22;25200;53.394;10.414;2023-07-20T09:04:27;18.70;69.30
39519;DHT22;25200;53.394;10.414;2023-07-20T09:06:53;18.80;69.30
39519;DHT22;25200;53.394;10.414;2023-07-20T09:09:19;18.90;69.40
39519;DHT22;25200;53.394;10.414;2023-07-20T09:11:49;19.10;68.90
39519;DHT22;25200;53.394;10.414;2023-07-20T09:14:14;19.10;68.40
39519;DHT22;25200;53.394;10.414;2023-07-20T09:16:52;19.20;68.50
39519;DHT22;25200;53.394;10.414;2023-07-20T09:19:18;19.40;68.50
39519;DHT22;25200;53.394;10.414;2023-07-20T09:21:51;19.50;68.10
39519;DHT22;25200;53.394;10.414;2023-07-20T09:24:18;19.70;68.20
39519;DHT22;25200;53.394;10.414;2023-07-20T09:26:46;19.90;68.00
39519;DHT22;25200;53.394;10.414;2023-07-20T09:29:19;20.20;67.80
39519;DHT22;25200;53.394;10.414;2023-07-20T09:32:04;20.20;67.10
39519;DHT22;25200;53.394;10.414;2023-07-20T09:34:30;20.30;67.20
39519;DHT22;25200;53.394;10.414;2023-07-20T09:36:59;20.40;67.00
39519;DHT22;25200;53.394;10.414;2023-07-20T09:39:25;20.60;67.10
39519;DHT22;25200;53.394;10.414;2023-07-20T09:41:51;20.90;67.30
39519;DHT22;25200;53.394;10.414;2023-07-20T09:44:17;21.10;66.80
39519;DHT22;25200;53.394;10.414;2023-07-20T09:46:47;21.50;66.40
39519;DHT22;25200;53.394;10.414;2023-07-20T09:49:13;21.70;66.90
39519;DHT22;25200;53.394;10.414;2023-07-20T09:51:40;21.80;65.40
39519;DHT22;25200;53.394;10.414;2023-07-20T09:54:07;22.00;65.30
39519;DHT22;25200;53.394;10.414;2023-07-20T09:56:34;22.20;65.00
39519;DHT22;25200;53.394;10.414;2023-07-20T09:59:00;22.40;65.20
39519;DHT22;25200;53.394;10.414;2023-07-20T10:01:26;22.60;64.30
39519;DHT22;25200;53.394;10.414;2023-07-20T10:03:54;22.80;64.10
39519;DHT22;25200;53.394;10.414;2023-07-20T10:06:24;22.80;63.50
39519;DHT22;25200;53.394;10.414;2023-07-20T10:08:53;22.90;63.90
39519;DHT22;25200;53.394;10.414;2023-07-20T10:11:22;23.20;64.10
39519;DHT22;25200;53.394;10.414;2023-07-20T10:13:53;23.40;63.70
39519;DHT22;25200;53.394;10.414;2023-07-20T10:16:31;23.60;63.10
39519;DHT22;25200;53.394;10.414;2023-07-20T10:21:47;24.10;62.80
39519;DHT22;25200;53.394;10.414;2023-07-20T10:24:13;24.00;62.10
39519;DHT22;25200;53.394;10.414;2023-07-20T10:26:40;23.70;61.50
39519;DHT22;25200;53.394;10.414;2023-07-20T10:29:05;23.50;61.20
39519;DHT22;25200;53.394;10.414;2023-07-20T10:31:32;23.10;60.60
39519;DHT22;25200;53.394;10.414;2023-07-20T10:33:59;22.60;60.60
39519;DHT22;25200;53.394;10.414;2023-07-20T10:36:26;22.10;61.00
39519;DHT22;25200;53.394;10.414;2023-07-20T10:38:56;21.80;62.00
39519;DHT22;25200;53.394;10.414;2023-07-20T10:41:29;21.60;62.60
39519;DHT22;25200;53.394;10.414;2023-07-20T10:44:06;21.40;63.10
39519;DHT22;25200;53.394;10.414;2023-07-20T10:49:05;21.20;63.90
39519;DHT22;25200;53.394;10.414;2023-07-20T10:51:56;21.20;64.40
39519;DHT22;25200;53.394;10.414;2023-07-20T10:56:48;21.40;65.30
39519;DHT22;25200;53.394;10.414;2023-07-20T10:59:20;21.60;65.60
39519;DHT22;25200;53.394;10.414;2023-07-20T11:02:06;21.80;65.30
39519;DHT22;25200;53.394;10.414;2023-07-20T11:04:42;22.20;65.40
39519;DHT22;25200;53.394;10.414;2023-07-20T11:07:09;22.40;65.30
39519;DHT22;25200;53.394;10.414;2023-07-20T11:09:35;22.70;65.30
39519;DHT22;25200;53.394;10.414;2023-07-20T11:12:15;22.90;65.00
39519;DHT22;25200;53.394;10.414;2023-07-20T11:14:43;23.20;64.70
39519;DHT22;25200;53.394;10.414;2023-07-20T11:17:13;23.30;64.10
39519;DHT22;25200;53.394;10.414;2023-07-20T11:19:39;23.50;64.50
39519;DHT22;25200;53.394;10.414;2023-07-20T11:22:06;23.60;64.10
39519;DHT22;25200;53.394;10.414;2023-07-20T11:24:39;23.60;63.10
39519;DHT22;25200;53.394;10.414;2023-07-20T11:27:05;23.50;63.00
39519;DHT22;25200;53.394;10.414;2023-07-20T11:29:31;23.30;62.80
39519;DHT22;25200;53.394;10.414;2023-07-20T11:31:57;23.20;63.00
39519;DHT22;25200;53.394;10.414;2023-07-20T11:34:24;23.20;63.10
39519;DHT22;25200;53.394;10.414;2023-07-20T11:36:51;23.20;63.70
39519;DHT22;25200;53.394;10.414;2023-07-20T11:39:18;23.30;62.30
39519;DHT22;25200;53.394;10.414;2023-07-20T11:41:52;23.40;62.40
39519;DHT22;25200;53.394;10.414;2023-07-20T11:44:19;23.40;62.30
39519;DHT22;25200;53.394;10.414;2023-07-20T11:46:46;23.30;61.40
39519;DHT22;25200;53.394;10.414;2023-07-20T11:49:12;23.40;63.10
39519;DHT22;25200;53.394;10.414;2023-07-20T11:51:39;23.60;62.90
39519;DHT22;25200;53.394;10.414;2023-07-20T11:54:07;23.70;62.30
39519;DHT22;25200;53.394;10.414;2023-07-20T11:56:33;23.70;62.10
39519;DHT22;25200;53.394;10.414;2023-07-20T11:58:59;23.70;61.70
39519;DHT22;25200;53.394;10.414;2023-07-20T12:01:28;23.80;62.00
39519;DHT22;25200;53.394;10.414;2023-07-20T12:04:02;23.90;62.10
39519;DHT22;25200;53.394;10.414;2023-07-20T12:06:29;24.10;62.40
39519;DHT22;25200;53.394;10.414;2023-07-20T12:08:56;24.30;62.10
39519;DHT22;25200;53.394;10.414;2023-07-20T12:11:35;24.40;62.00
39519;DHT22;25200;53.394;10.414;2023-07-20T12:14:11;24.30;60.90
39519;DHT22;25200;53.394;10.414;2023-07-20T12:16:37;24.30;61.30
39519;DHT22;25200;53.394;10.414;2023-07-20T12:19:07;24.20;60.90
39519;DHT22;25200;53.394;10.414;2023-07-20T12:21:37;24.00;60.80
39519;DHT22;25200;53.394;10.414;2023-07-20T12:24:04;23.90;60.30
39519;DHT22;25200;53.394;10.414;2023-07-20T12:26:31;23.70;61.10
39519;DHT22;25200;53.394;10.414;2023-07-20T12:28:57;23.60;60.90
39519;DHT22;25200;53.394;10.414;2023-07-20T12:31:24;23.50;61.70
39519;DHT22;25200;53.394;10.414;2023-07-20T12:33:51;23.50;61.30
39519;DHT22;25200;53.394;10.414;2023-07-20T12:36:17;23.60;61.50
39519;DHT22;25200;53.394;10.414;2023-07-20T12:38:43;23.50;61.40
39519;DHT22;25200;53.394;10.414;2023-07-20T12:41:11;23.50;61.30
39519;DHT22;25200;53.394;10.414;2023-07-20T12:43:40;23.40;61.00
39519;DHT22;25200;53.394;10.414;2023-07-20T12:46:06;23.40;61.20
39519;DHT22;25200;53.394;10.414;2023-07-20T12:48:32;23.40;61.40
39519;DHT22;25200;53.394;10.414;2023-07-20T12:50:58;23.40;61.70
39519;DHT22;25200;53.394;10.414;2023-07-20T12:53:24;23.60;62.30
39519;DHT22;25200;53.394;10.414;2023-07-20T12:55:49;23.90;62.50
39519;DHT22;25200;53.394;10.414;2023-07-20T12:58:15;24.10;61.80
39519;DHT22;25200;53.394;10.414;2023-07-20T13:00:41;24.30;61.30
39519;DHT22;25200;53.394;10.414;2023-07-20T13:03:07;24.40;61.50
39519;DHT22;25200;53.394;10.414;2023-07-20T13:05:34;24.40;60.00
39519;DHT22;25200;53.394;10.414;2023-07-20T13:08:01;24.40;59.70
39519;DHT22;25200;53.394;10.414;2023-07-20T13:10:27;24.40;60.00
39519;DHT22;25200;53.394;10.414;2023-07-20T13:12:52;24.30;60.60
39519;DHT22;25200;53.394;10.414;2023-07-20T13:15:18;24.30;60.70
39519;DHT22;25200;53.394;10.414;2023-07-20T13:17:44;24.20;60.40
39519;DHT22;25200;53.394;10.414;2023-07-20T13:20:10;24.00;60.40
39519;DHT22;25200;53.394;10.414;2023-07-20T13:22:39;24.00;60.40
39519;DHT22;25200;53.394;10.414;2023-07-20T13:25:06;23.90;60.40
39519;DHT22;25200;53.394;10.414;2023-07-20T13:27:32;23.90;60.60
39519;DHT22;25200;53.394;10.414;2023-07-20T13:29:59;24.00;61.20
39519;DHT22;25200;53.394;10.414;2023-07-20T13:32:26;24.00;60.70
39519;DHT22;25200;53.394;10.414;2023-07-20T13:34:52;24.00;60.50
39519;DHT22;25200;53.394;10.414;2023-07-20T13:37:18;23.90;60.10
39519;DHT22;25200;53.394;10.414;2023-07-20T13:39:44;23.90;60.20
39519;DHT22;25200;53.394;10.414;2023-07-20T13:42:10;23.80;60.30
39519;DHT22;25200;53.394;10.414;2023-07-20T13:44:37;23.70;60.50
39519;DHT22;25200;53.394;10.414;2023-07-20T13:47:04;23.80;61.40
39519;DHT22;25200;53.394;10.414;2023-07-20T13:49:32;24.00;61.90
39519;DHT22;25200;53.394;10.414;2023-07-20T13:51:58;24.30;63.10
39519;DHT22;25200;53.394;10.414;2023-07-20T13:54:24;24.70;61.30
39519;DHT22;25200;53.394;10.414;2023-07-20T13:56:50;25.10;62.20
39519;DHT22;25200;53.394;10.414;2023-07-20T13:59:19;25.50;61.60
39519;DHT22;25200;53.394;10.414;2023-07-20T14:01:45;25.90;60.80
39519;DHT22;25200;53.394;10.414;2023-07-20T14:04:10;26.10;60.50
39519;DHT22;25200;53.394;10.414;2023-07-20T14:06:36;26.40;59.90
39519;DHT22;25200;53.394;10.414;2023-07-20T14:09:02;26.50;60.10
39519;DHT22;25200;53.394;10.414;2023-07-20T14:11:28;26.50;60.10
39519;DHT22;25200;53.394;10.414;2023-07-20T14:13:54;26.50;59.80
39519;DHT22;25200;53.394;10.414;2023-07-20T14:16:21;26.40;59.60
39519;DHT22;25200;53.394;10.414;2023-07-20T14:18:47;26.40;60.00
39519;DHT22;25200;53.394;10.414;2023-07-20T14:21:14;26.50;59.70
39519;DHT22;25200;53.394;10.414;2023-07-20T14:23:40;26.60;59.90
39519;DHT22;25200;53.394;10.414;2023-07-20T14:26:06;26.80;59.80
39519;DHT22;25200;53.394;10.414;2023-07-20T14:28:33;26.90;60.10
39519;DHT22;25200;53.394;10.414;2023-07-20T14:30:58;27.00;59.40
39519;DHT22;25200;53.394;10.414;2023-07-20T14:33:24;27.10;59.60
39519;DHT22;25200;53.394;10.414;2023-07-20T14:35:50;27.20;59.40
39519;DHT22;25200;53.394;10.414;2023-07-20T14:38:15;27.20;59.30
39519;DHT22;25200;53.394;10.414;2023-07-20T14:40:41;27.30;59.40
39519;DHT22;25200;53.394;10.414;2023-07-20T14:43:07;27.40;59.20
39519;DHT22;25200;53.394;10.414;2023-07-20T14:45:32;27.40;59.10
39519;DHT22;25200;53.394;10.414;2023-07-20T14:47:58;27.40;58.60
39519;DHT22;25200;53.394;10.414;2023-07-20T14:50:24;27.30;57.60
39519;DHT22;25200;53.394;10.414;2023-07-20T14:52:50;26.90;57.30
39519;DHT22;25200;53.394;10.414;2023-07-20T14:55:16;26.60;57.10
39519;DHT22;25200;53.394;10.414;2023-07-20T14:57:42;26.20;57.40
39519;DHT22;25200;53.394;10.414;2023-07-20T15:00:08;26.00;57.70
39519;DHT22;25200;53.394;10.414;2023-07-20T15:02:38;25.80;57.80
39519;DHT22;25200;53.394;10.414;2023-07-20T15:05:08;25.60;57.90
39519;DHT22;25200;53.394;10.414;2023-07-20T15:07:34;25.60;58.50
39519;DHT22;25200;53.394;10.414;2023-07-20T15:10:00;25.70;58.60
39519;DHT22;25200;53.394;10.414;2023-07-20T15:12:26;25.70;58.30
39519;DHT22;25200;53.394;10.414;2023-07-20T15:15:09;25.70;58.50
39519;DHT22;25200;53.394;10.414;2023-07-20T15:17:35;25.60;57.70
39519;DHT22;25200;53.394;10.414;2023-07-20T15:20:02;25.50;57.40
39519;DHT22;25200;53.394;10.414;2023-07-20T15:22:32;25.30;57.50
39519;DHT22;25200;53.394;10.414;2023-07-20T15:24:58;25.20;57.70
39519;DHT22;25200;53.394;10.414;2023-07-20T15:27:23;25.10;58.40
39519;DHT22;25200;53.394;10.414;2023-07-20T15:29:49;25.00;58.20
39519;DHT22;25200;53.394;10.414;2023-07-20T15:32:19;24.80;58.00